Airfield :







YOU CAN JOIN US ON...

 
LOGIN :

Register | Disclaimer

   EN    FR    IT 

 









Legend :    VFR   Marginal VFR   IFR   Intensive IFR   Very Intensive IFR
Visi :
Ceiling :
>= 8 km
>= 3000ft
5 to 8 km
1000 to 3000 ft
1500m to 5 km
500 to 1000 ft
800 to 1500m
200 to 500 ft
< 800m
< 200 ft
Symbols :   Thunderstorms  Fog  Heavy snow  Heavy precipitations  Wind > 20 kt






- Airport Elevation : 271 ft


KBAF - Barnes Municipal

CURRENT METAR :
  • 031053Z 19008KT 10SM CLR 23/21 A2992 RMK AO2 SLP129 T02330211

EXPIRED METARs :
  • 030953Z AUTO 17006KT 10SM CLR 23/22 A2990 RMK AO2 SLP122 T02330222
  • 030853Z AUTO 17006KT 10SM CLR 23/23 A2988 RMK AO2 SLP116 T02330228 53006

TAF KBAF
Valid from the 03 at 06:00 until the 04 at 06:00 UTC


030540Z 0306/0406 19005KT P6SM FEW060
FM031000 21006KT P6SM SCT200
FM031300 24010KT P6SM SCT250
FM040200 21003KT 6SM BR VCSH BKN100
KZBW FIR / North America



MET'MAP, your aeronautical weather chart ! - Copyright ORBIFLY December 2007 - Disclaimer

ORBIFLY MET'MAP TEAM :

Programming & Development : Alexandra Zaïnal
Concept & original design : Baudouin d'Aumeries
Assistance for programming : Marc-Olivier Méhu
Technical & hardware support : Manuel Goepfert

Contact : metmap@orbifly.com




SOURCES & CREDITS :

   NOAA